TimeEDT,TemperatureF,Dew PointF,Humidity,Sea Level PressureIn,VisibilityMPH,Wind Direction,Wind SpeedMPH,Gust SpeedMPH,PrecipitationIn,Events,Conditions,WindDirDegrees,DateUTC
12:53 AM,80.1,73.9,81,29.92,10.0,East,9.2,-,N/A,,Scattered Clouds,80,2012-10-15 04:53:00
1:53 AM,80.1,73.9,81,29.91,10.0,East,10.4,-,N/A,,Scattered Clouds,80,2012-10-15 05:53:00
2:53 AM,80.1,73.0,79,29.89,10.0,East,9.2,-,N/A,,Partly Cloudy,90,2012-10-15 06:53:00
3:53 AM,80.1,73.0,79,29.87,10.0,East,11.5,-,N/A,,Partly Cloudy,90,2012-10-15 07:53:00
4:50 AM,80.6,73.4,79,29.86,10.0,East,10.4,-,0.00,Rain,Light Rain,80,2012-10-15 08:50:00
4:53 AM,80.1,73.9,81,29.86,10.0,ENE,12.7,18.4,0.00,Rain,Light Rain,70,2012-10-15 08:53:00
5:33 AM,78.8,75.2,89,29.86,10.0,East,11.5,-,0.00,,Scattered Clouds,80,2012-10-15 09:33:00
5:53 AM,79.0,73.0,82,29.85,10.0,ENE,10.4,-,0.00,,Scattered Clouds,70,2012-10-15 09:53:00
6:53 AM,80.1,73.9,81,29.86,10.0,East,10.4,-,N/A,,Scattered Clouds,80,2012-10-15 10:53:00
7:53 AM,81.0,73.0,77,29.88,10.0,ENE,12.7,-,N/A,,Scattered Clouds,60,2012-10-15 11:53:00
8:53 AM,82.0,73.0,74,29.88,10.0,East,12.7,-,N/A,,Mostly Cloudy,80,2012-10-15 12:53:00
9:53 AM,82.9,72.0,69,29.89,10.0,ENE,10.4,-,N/A,,Partly Cloudy,60,2012-10-15 13:53:00
10:53 AM,84.0,73.0,69,29.89,10.0,ENE,12.7,-,N/A,,Partly Cloudy,70,2012-10-15 14:53:00
11:53 AM,86.0,73.0,65,29.89,10.0,NE,13.8,-,N/A,,Partly Cloudy,40,2012-10-15 15:53:00
12:53 PM,84.9,72.0,65,29.87,10.0,NE,10.4,-,N/A,,Scattered Clouds,50,2012-10-15 16:53:00
1:53 PM,84.9,71.1,63,29.85,10.0,ENE,11.5,-,N/A,,Partly Cloudy,60,2012-10-15 17:53:00
2:53 PM,86.0,72.0,63,29.82,10.0,NE,12.7,-,N/A,,Partly Cloudy,40,2012-10-15 18:53:00
3:53 PM,84.9,71.1,63,29.81,10.0,NE,15.0,-,N/A,,Partly Cloudy,50,2012-10-15 19:53:00
4:53 PM,84.0,71.1,65,29.79,10.0,NE,13.8,-,N/A,,Partly Cloudy,50,2012-10-15 20:53:00
5:53 PM,84.0,72.0,67,29.80,10.0,NE,12.7,-,N/A,,Partly Cloudy,40,2012-10-15 21:53:00
6:53 PM,82.0,72.0,71,29.79,10.0,NE,11.5,-,N/A,,Partly Cloudy,40,2012-10-15 22:53:00
7:53 PM,82.0,72.0,71,29.80,10.0,NE,11.5,-,N/A,,Partly Cloudy,40,2012-10-15 23:53:00
8:53 PM,81.0,72.0,74,29.81,10.0,ENE,6.9,-,N/A,,Partly Cloudy,60,2012-10-16 00:53:00
9:53 PM,81.0,72.0,74,29.83,10.0,North,6.9,-,N/A,,Partly Cloudy,360,2012-10-16 01:53:00
10:53 PM,80.1,72.0,76,29.83,10.0,North,4.6,-,N/A,,Partly Cloudy,360,2012-10-16 02:53:00
11:53 PM,78.1,72.0,81,29.83,10.0,NNW,6.9,-,N/A,,Partly Cloudy,340,2012-10-16 03:53:00